Time;durP1;ratioP1;P1;durP2;ratioP2;P2;SDS_P1;SDS_P2;PMS_P1;PMS_P2;Temp;Humidity;BMP_temperature;BMP_pressure;BME280_temperature;BME280_humidity;BME280_pressure;Samples;Min_cycle;Max_cycle;Signal;HPM_P1;HPM_P2
2021/07/02 00:00:42;;;;;;;10.30;8.00;;;14.30;95.60;;;;;;5050377;28;20481;-71
2021/07/02 00:03:09;;;;;;;10.53;8.67;;;14.40;96.40;;;;;;5040504;28;21093;-71
2021/07/02 00:05:36;;;;;;;10.10;8.63;;;14.40;96.10;;;;;;5031206;28;20732;-71
2021/07/02 00:08:04;;;;;;;8.77;7.93;;;14.40;95.70;;;;;;5037197;28;20534;-71
2021/07/02 00:10:31;;;;;;;15.27;8.53;;;14.40;96.30;;;;;;5032962;28;21115;-71
2021/07/02 00:12:58;;;;;;;11.53;9.10;;;14.40;95.50;;;;;;5041779;28;20448;-71
2021/07/02 00:15:25;;;;;;;9.87;7.70;;;14.40;95.90;;;;;;5046076;28;20461;-71
2021/07/02 00:17:52;;;;;;;14.27;8.23;;;14.40;95.70;;;;;;5043561;28;21086;-71
2021/07/02 00:20:19;;;;;;;9.57;8.50;;;14.40;95.60;;;;;;5043695;28;20466;-71
2021/07/02 00:22:45;;;;;;;11.43;8.60;;;14.40;95.30;;;;;;5045817;28;20502;-71
2021/07/02 00:25:14;;;;;;;11.87;8.77;;;14.30;95.30;;;;;;5047433;28;20457;-70
2021/07/02 00:27:41;;;;;;;11.97;7.80;;;14.40;96.20;;;;;;5050526;28;20502;-69
2021/07/02 00:30:08;;;;;;;9.13;8.23;;;14.40;96.40;;;;;;5044991;28;20520;-70
2021/07/02 00:32:35;;;;;;;10.80;8.57;;;14.40;96.20;;;;;;5050142;28;20460;-70
2021/07/02 00:35:01;;;;;;;9.27;8.20;;;14.40;95.20;;;;;;5043872;28;20465;-70
2021/07/02 00:37:28;;;;;;;13.43;8.10;;;14.40;94.80;;;;;;5056162;28;20456;-70
2021/07/02 00:39:55;;;;;;;10.80;8.47;;;14.50;95.10;;;;;;5051374;28;20456;-70
2021/07/02 00:42:23;;;;;;;13.50;9.07;;;14.50;95.50;;;;;;5049612;28;20550;-70
2021/07/02 00:44:50;;;;;;;8.13;7.20;;;14.50;94.90;;;;;;5042341;28;20463;-70
2021/07/02 00:47:18;;;;;;;11.57;9.00;;;14.40;95.40;;;;;;5044133;28;20465;-70
2021/07/02 00:49:45;;;;;;;11.97;9.03;;;14.50;95.50;;;;;;5045502;28;20460;-70
2021/07/02 00:52:13;;;;;;;11.00;9.03;;;14.50;95.50;;;;;;5046756;28;20529;-70
2021/07/02 00:54:42;;;;;;;11.03;8.20;;;14.50;95.70;;;;;;5044872;28;20942;-70
2021/07/02 00:57:10;;;;;;;10.00;8.67;;;14.60;95.30;;;;;;5045280;28;21180;-71
2021/07/02 00:59:41;;;;;;;9.73;8.70;;;14.60;95.10;;;;;;5048627;28;20447;-69
2021/07/02 01:02:07;;;;;;;12.13;9.10;;;14.60;95.80;;;;;;5039320;28;20455;-69
2021/07/02 01:04:34;;;;;;;10.87;9.77;;;14.60;95.50;;;;;;5048492;28;20471;-70
2021/07/02 01:07:03;;;;;;;12.20;9.13;;;14.60;94.00;;;;;;5044651;28;20567;-69
2021/07/02 01:09:30;;;;;;;13.57;9.20;;;14.50;94.30;;;;;;5045305;28;20481;-69
2021/07/02 01:11:58;;;;;;;10.83;9.30;;;14.50;94.00;;;;;;5043127;28;20461;-70
2021/07/02 01:14:25;;;;;;;11.30;8.87;;;14.50;94.30;;;;;;5043522;28;20967;-70
2021/07/02 01:16:53;;;;;;;9.60;8.37;;;14.50;95.50;;;;;;5044464;28;20513;-70
2021/07/02 01:19:19;;;;;;;10.47;9.23;;;14.50;94.90;;;;;;5049729;28;20805;-70
2021/07/02 01:21:47;;;;;;;12.80;9.13;;;14.50;94.80;;;;;;5040330;28;20468;-70
2021/07/02 01:24:14;;;;;;;10.87;8.77;;;14.50;95.30;;;;;;5047550;28;20548;-70
2021/07/02 01:26:42;;;;;;;10.37;8.73;;;14.40;94.90;;;;;;5054324;28;20465;-70
2021/07/02 01:29:09;;;;;;;10.50;8.80;;;14.40;95.60;;;;;;5048674;28;20486;-70
2021/07/02 01:31:36;;;;;;;13.47;9.30;;;14.40;95.50;;;;;;5034824;28;20485;-70
2021/07/02 01:34:03;;;;;;;10.23;8.13;;;14.40;95.50;;;;;;5026863;28;20558;-70
2021/07/02 01:36:30;;;;;;;9.40;8.50;;;14.40;96.10;;;;;;5027281;28;20915;-70
2021/07/02 01:38:58;;;;;;;15.83;9.50;;;14.40;96.50;;;;;;5029773;28;20538;-70
2021/07/02 01:41:25;;;;;;;10.57;8.20;;;14.40;96.40;;;;;;5042764;28;20459;-70
2021/07/02 01:43:52;;;;;;;10.33;8.90;;;14.40;97.70;;;;;;5047821;28;20498;-70
2021/07/02 01:46:18;;;;;;;15.03;8.70;;;14.40;97.70;;;;;;5050369;28;20459;-70
2021/07/02 01:48:45;;;;;;;13.50;9.20;;;14.30;97.30;;;;;;5041682;28;21009;-70
2021/07/02 01:51:12;;;;;;;10.30;8.30;;;14.30;97.20;;;;;;5045516;28;20463;-70
2021/07/02 01:53:39;;;;;;;12.67;8.97;;;14.30;97.40;;;;;;5047289;28;21411;-70
2021/07/02 01:56:07;;;;;;;10.00;9.00;;;14.30;97.70;;;;;;5048886;28;20972;-70
2021/07/02 01:58:34;;;;;;;10.67;8.53;;;14.30;97.20;;;;;;5041742;28;20450;-70
2021/07/02 02:01:01;;;;;;;10.60;9.13;;;14.30;98.20;;;;;;5039845;28;20528;-71
2021/07/02 02:03:28;;;;;;;14.33;8.80;;;14.30;98.00;;;;;;5049254;28;20458;-70
2021/07/02 02:05:54;;;;;;;11.67;9.13;;;14.30;97.00;;;;;;5046521;28;20452;-70
2021/07/02 02:08:21;;;;;;;12.40;9.23;;;14.30;97.10;;;;;;5038816;28;20457;-70
2021/07/02 02:10:48;;;;;;;13.60;9.20;;;14.30;97.20;;;;;;5044364;28;20492;-69
2021/07/02 02:13:16;;;;;;;9.83;8.93;;;14.40;97.30;;;;;;5043932;28;20971;-70
2021/07/02 02:15:43;;;;;;;10.47;8.20;;;14.30;97.40;;;;;;5055266;28;20468;-70
2021/07/02 02:18:10;;;;;;;12.63;9.30;;;14.30;98.30;;;;;;5041640;28;20446;-70
2021/07/02 02:20:36;;;;;;;11.37;8.93;;;14.30;97.20;;;;;;5044409;28;20487;-70
2021/07/02 02:23:03;;;;;;;8.43;7.50;;;14.30;97.90;;;;;;5044990;28;20450;-70
2021/07/02 02:25:30;;;;;;;12.63;8.73;;;14.30;98.20;;;;;;5041712;28;21393;-70
2021/07/02 02:27:57;;;;;;;9.63;8.67;;;14.30;99.00;;;;;;5042790;28;20983;-70
2021/07/02 02:30:25;;;;;;;11.50;8.90;;;14.30;99.50;;;;;;5045828;28;20532;-70
2021/07/02 02:32:52;;;;;;;11.00;8.60;;;14.30;99.20;;;;;;5045325;28;20623;-71
2021/07/02 02:35:19;;;;;;;12.33;8.13;;;14.30;97.70;;;;;;5043286;28;20557;-70
2021/07/02 02:37:45;;;;;;;11.83;8.57;;;14.30;97.20;;;;;;5044658;28;21064;-71
2021/07/02 02:40:13;;;;;;;15.67;9.30;;;14.30;97.10;;;;;;5043966;28;20458;-71
2021/07/02 02:42:40;;;;;;;10.80;9.47;;;14.20;98.80;;;;;;5054267;28;20551;-71
2021/07/02 02:45:08;;;;;;;12.10;10.70;;;14.20;97.20;;;;;;5050971;28;20535;-70
2021/07/02 02:47:36;;;;;;;13.27;8.87;;;14.20;98.50;;;;;;5054417;28;20448;-71
2021/07/02 02:50:04;;;;;;;12.53;9.37;;;14.20;99.10;;;;;;5045605;28;20495;-71
2021/07/02 02:52:31;;;;;;;10.50;9.40;;;14.20;99.90;;;;;;5049306;28;21104;-71
2021/07/02 02:54:58;;;;;;;13.80;9.53;;;14.20;99.90;;;;;;5045536;28;20880;-71
2021/07/02 02:57:25;;;;;;;10.77;9.20;;;14.20;99.90;;;;;;5058539;28;20496;-69
2021/07/02 02:59:51;;;;;;;12.90;9.23;;;14.20;99.90;;;;;;5064324;28;20449;-70
2021/07/02 03:02:18;;;;;;;13.73;9.03;;;14.10;99.90;;;;;;5057924;28;20447;-69
2021/07/02 03:04:46;;;;;;;13.77;9.47;;;14.10;99.90;;;;;;5050693;28;20436;-70
2021/07/02 03:07:13;;;;;;;12.40;9.70;;;14.10;99.90;;;;;;5054536;28;20488;-70
2021/07/02 03:09:40;;;;;;;12.40;9.70;;;14.00;99.90;;;;;;5044827;28;20476;-70
2021/07/02 03:12:08;;;;;;;12.10;8.97;;;14.00;99.90;;;;;;5046032;28;20470;-70
2021/07/02 03:14:35;;;;;;;11.47;8.90;;;13.90;99.90;;;;;;5056568;28;20451;-70
2021/07/02 03:17:01;;;;;;;12.50;9.43;;;14.00;99.90;;;;;;5048495;28;20910;-70
2021/07/02 03:19:28;;;;;;;10.30;8.77;;;14.00;99.90;;;;;;5052234;28;20564;-70
2021/07/02 03:21:56;;;;;;;15.90;9.50;;;14.00;99.90;;;;;;5044065;28;20560;-70
2021/07/02 03:24:23;;;;;;;11.43;8.57;;;13.90;99.90;;;;;;5051394;28;20487;-70
2021/07/02 03:26:50;;;;;;;12.20;9.23;;;14.00;99.90;;;;;;5053780;28;20454;-69
2021/07/02 03:29:17;;;;;;;12.80;9.67;;;14.00;99.90;;;;;;5048314;28;20890;-70
2021/07/02 03:31:43;;;;;;;12.00;9.50;;;14.00;99.90;;;;;;5046412;28;21066;-69
2021/07/02 03:34:10;;;;;;;15.90;10.03;;;14.10;99.90;;;;;;5050625;28;20460;-69
2021/07/02 03:36:37;;;;;;;12.43;9.57;;;14.10;99.90;;;;;;5052149;28;20450;-69
2021/07/02 03:39:06;;;;;;;14.07;10.20;;;14.00;99.90;;;;;;5053554;28;20443;-71
2021/07/02 03:41:33;;;;;;;12.77;10.07;;;14.00;99.90;;;;;;5040276;28;20451;-70
2021/07/02 03:43:59;;;;;;;15.63;11.10;;;14.00;99.90;;;;;;5045545;28;20456;-70
2021/07/02 03:46:26;;;;;;;16.20;9.33;;;13.90;99.90;;;;;;5033936;28;20460;-70
2021/07/02 03:48:53;;;;;;;14.13;11.20;;;14.00;99.90;;;;;;5030597;28;20452;-70
2021/07/02 03:51:20;;;;;;;13.33;10.10;;;13.90;99.90;;;;;;5030474;28;20482;-70
2021/07/02 03:53:47;;;;;;;14.73;10.50;;;13.90;99.90;;;;;;5029470;28;20468;-70
2021/07/02 03:56:15;;;;;;;13.57;10.57;;;13.90;99.90;;;;;;5034244;28;20920;-70
2021/07/02 03:58:42;;;;;;;15.97;11.80;;;13.90;99.90;;;;;;5042131;28;20463;-70
2021/07/02 04:01:09;;;;;;;20.00;11.50;;;13.90;99.90;;;;;;5044605;28;20530;-70
2021/07/02 04:03:36;;;;;;;13.70;10.70;;;13.80;99.90;;;;;;5046379;28;20464;-70
2021/07/02 04:06:03;;;;;;;17.40;12.67;;;13.80;99.90;;;;;;5049424;28;20462;-70
2021/07/02 04:08:30;;;;;;;15.77;12.70;;;13.80;99.90;;;;;;5047781;28;20467;-70
2021/07/02 04:10:56;;;;;;;12.90;10.77;;;13.80;99.90;;;;;;5043135;28;20987;-70
2021/07/02 04:13:25;;;;;;;15.30;11.70;;;13.80;99.90;;;;;;5051852;28;20475;-70
2021/07/02 04:15:54;;;;;;;15.20;12.87;;;13.70;99.90;;;;;;5050949;28;20562;-70
2021/07/02 04:18:21;;;;;;;17.53;11.90;;;13.70;99.90;;;;;;5046456;28;20962;-70
2021/07/02 04:20:48;;;;;;;14.53;11.87;;;13.70;99.90;;;;;;5040052;28;20497;-70
2021/07/02 04:23:15;;;;;;;13.80;11.00;;;13.70;99.90;;;;;;5044232;28;20509;-70
2021/07/02 04:25:42;;;;;;;17.80;12.67;;;13.70;99.90;;;;;;5029897;28;20468;-71
2021/07/02 04:28:09;;;;;;;17.47;12.60;;;13.70;99.90;;;;;;5026494;28;20459;-70
2021/07/02 04:30:37;;;;;;;17.30;11.57;;;13.80;99.90;;;;;;5030978;28;21022;-71
2021/07/02 04:33:04;;;;;;;14.83;12.23;;;13.70;99.90;;;;;;5044671;28;20505;-70
2021/07/02 04:35:31;;;;;;;14.60;12.17;;;13.70;99.90;;;;;;5050462;28;20546;-71
2021/07/02 04:37:58;;;;;;;14.20;12.20;;;13.80;99.90;;;;;;5052097;28;20452;-72
2021/07/02 04:40:24;;;;;;;15.20;12.30;;;13.80;99.90;;;;;;5048381;28;20463;-70
2021/07/02 04:42:51;;;;;;;17.57;12.80;;;13.80;99.90;;;;;;5044601;28;22344;-70
2021/07/02 04:45:18;;;;;;;14.50;12.23;;;13.90;99.90;;;;;;5044522;28;20474;-71
2021/07/02 04:47:46;;;;;;;14.63;13.13;;;13.90;99.90;;;;;;5044463;28;20453;-70
2021/07/02 04:50:13;;;;;;;15.03;12.27;;;13.90;99.90;;;;;;5050135;28;20526;-70
2021/07/02 04:52:40;;;;;;;16.10;13.03;;;13.90;99.90;;;;;;5043043;28;20599;-71
2021/07/02 04:55:07;;;;;;;15.10;11.33;;;13.80;99.90;;;;;;5032656;28;20668;-71
2021/07/02 04:57:34;;;;;;;17.40;12.50;;;13.90;98.10;;;;;;5041413;28;20441;-71
2021/07/02 05:00:02;;;;;;;16.03;11.83;;;13.90;98.60;;;;;;5044820;28;20457;-71
2021/07/02 05:02:29;;;;;;;13.83;11.90;;;13.80;97.80;;;;;;5045074;28;20452;-71
2021/07/02 05:04:57;;;;;;;19.40;13.17;;;13.90;97.70;;;;;;5043234;28;20459;-71
2021/07/02 05:07:24;;;;;;;15.47;11.90;;;14.00;99.10;;;;;;5050860;28;20448;-71
2021/07/02 05:09:52;;;;;;;16.17;13.27;;;13.90;97.40;;;;;;5049834;28;20536;-70
2021/07/02 05:12:18;;;;;;;17.87;13.73;;;13.90;99.10;;;;;;5046560;28;20475;-70
2021/07/02 05:14:45;;;;;;;18.67;13.80;;;13.90;99.90;;;;;;5036438;28;20547;-70
2021/07/02 05:17:12;;;;;;;16.80;12.60;;;14.00;99.90;;;;;;5028025;28;20482;-70
2021/07/02 05:19:41;;;;;;;16.80;13.70;;;14.00;98.70;;;;;;5029975;28;20546;-70
2021/07/02 05:22:13;;;;;;;17.23;14.60;;;14.00;99.10;;;;;;5029223;28;20545;-70
2021/07/02 05:24:41;;;;;;;14.40;12.90;;;14.00;99.80;;;;;;5045495;28;20539;-70
2021/07/02 05:27:08;;;;;;;15.87;12.73;;;14.00;99.90;;;;;;5042962;28;21061;-70
2021/07/02 05:29:34;;;;;;;14.87;12.83;;;14.00;99.90;;;;;;5046956;28;20454;-70
2021/07/02 05:32:01;;;;;;;16.20;12.23;;;14.00;99.90;;;;;;5049114;28;20467;-70
2021/07/02 05:34:28;;;;;;;18.37;14.07;;;14.00;99.80;;;;;;5043807;28;20477;-70
2021/07/02 05:36:55;;;;;;;18.70;14.47;;;14.10;99.70;;;;;;5044718;28;21002;-71
2021/07/02 05:39:23;;;;;;;20.30;14.97;;;14.10;98.10;;;;;;5050562;28;20879;-69
2021/07/02 05:41:50;;;;;;;19.47;14.10;;;14.10;99.40;;;;;;5046447;28;20865;-70
2021/07/02 05:44:17;;;;;;;15.37;13.60;;;14.10;99.00;;;;;;5044998;28;20445;-70
2021/07/02 05:46:44;;;;;;;19.20;14.80;;;14.10;99.50;;;;;;5041994;28;20891;-70
2021/07/02 05:49:11;;;;;;;18.77;14.10;;;14.10;99.90;;;;;;5030963;28;20555;-71
2021/07/02 05:51:39;;;;;;;17.10;14.40;;;14.20;99.50;;;;;;5028264;28;20492;-70
2021/07/02 05:54:05;;;;;;;15.80;13.33;;;14.40;96.40;;;;;;5028636;28;21073;-72
2021/07/02 05:56:34;;;;;;;22.17;14.30;;;14.40;96.40;;;;;;5027987;28;20457;-70
2021/07/02 05:59:01;;;;;;;16.37;14.67;;;14.50;98.10;;;;;;5045270;28;20453;-70
2021/07/02 06:01:29;;;;;;;19.17;14.07;;;14.50;95.60;;;;;;5041265;28;20450;-70
2021/07/02 06:03:56;;;;;;;20.33;14.30;;;14.50;94.00;;;;;;5041034;28;20462;-70
2021/07/02 06:06:23;;;;;;;18.47;13.70;;;14.40;95.60;;;;;;5042199;28;20511;-70
2021/07/02 06:08:50;;;;;;;17.33;13.33;;;14.50;96.10;;;;;;5050021;28;20481;-70
2021/07/02 06:11:18;;;;;;;16.80;14.00;;;14.50;93.50;;;;;;5042145;28;20515;-70
2021/07/02 06:13:46;;;;;;;17.17;14.50;;;14.50;92.80;;;;;;5041854;28;20564;-71
2021/07/02 06:16:13;;;;;;;18.07;14.33;;;14.50;93.40;;;;;;5030710;28;20567;-70
2021/07/02 06:18:40;;;;;;;15.50;13.80;;;14.50;91.00;;;;;;5030390;28;20509;-71
2021/07/02 06:21:07;;;;;;;20.60;14.77;;;14.60;91.40;;;;;;5028690;28;21042;-70
2021/07/02 06:23:35;;;;;;;15.60;12.80;;;14.70;90.90;;;;;;5033821;28;20457;-71
2021/07/02 06:26:02;;;;;;;19.03;13.90;;;14.80;90.90;;;;;;5038999;28;20980;-76
2021/07/02 06:28:29;;;;;;;14.90;13.30;;;15.00;88.20;;;;;;5047125;28;20451;-74
2021/07/02 06:30:58;;;;;;;17.60;13.17;;;15.00;88.20;;;;;;5051639;28;20198;-74
2021/07/02 06:33:25;;;;;;;16.40;12.70;;;15.10;87.90;;;;;;5044409;28;20481;-74
2021/07/02 06:35:52;;;;;;;16.00;13.23;;;15.20;87.40;;;;;;5053026;28;20445;-74
2021/07/02 06:38:20;;;;;;;15.20;12.67;;;15.30;85.90;;;;;;5046653;28;20448;-74
2021/07/02 06:40:47;;;;;;;14.47;13.07;;;15.30;86.30;;;;;;5048110;28;20469;-73
2021/07/02 06:43:14;;;;;;;18.67;13.17;;;15.30;86.50;;;;;;5050110;28;20457;-74
2021/07/02 06:45:41;;;;;;;15.30;11.70;;;15.40;86.80;;;;;;5049735;28;20894;-74
2021/07/02 06:48:09;;;;;;;13.37;11.80;;;15.50;86.80;;;;;;5049750;28;20470;-74
2021/07/02 06:50:38;;;;;;;14.17;12.67;;;15.60;86.00;;;;;;5029500;28;20457;-72
2021/07/02 06:53:06;;;;;;;14.37;12.03;;;15.60;85.10;;;;;;5042583;28;20483;-72
2021/07/02 06:55:34;;;;;;;13.40;11.83;;;15.50;84.90;;;;;;5042676;28;20452;-73
2021/07/02 06:58:03;;;;;;;15.00;12.50;;;15.60;86.20;;;;;;5052184;28;21044;-72
2021/07/02 07:00:30;;;;;;;18.63;13.87;;;15.40;84.30;;;;;;5030865;28;20787;-73
2021/07/02 07:02:57;;;;;;;18.23;13.07;;;15.30;85.10;;;;;;5053071;28;20453;-73
2021/07/02 07:05:25;;;;;;;14.90;13.40;;;15.30;85.40;;;;;;5047626;28;20478;-72
2021/07/02 07:07:52;;;;;;;16.47;14.00;;;15.40;84.50;;;;;;5051634;28;20533;-73
2021/07/02 07:10:19;;;;;;;16.40;14.30;;;15.50;84.30;;;;;;5044050;28;20968;-73
2021/07/02 07:12:46;;;;;;;15.03;12.60;;;15.70;84.30;;;;;;5055426;28;20477;-73
2021/07/02 07:15:14;;;;;;;14.10;12.47;;;15.80;83.00;;;;;;5051517;28;20496;-73
2021/07/02 07:17:41;;;;;;;19.20;13.57;;;15.90;80.50;;;;;;5045135;28;20477;-73
2021/07/02 07:20:09;;;;;;;21.53;14.60;;;16.10;80.30;;;;;;5045716;28;20762;-73
2021/07/02 07:22:37;;;;;;;15.90;14.10;;;16.10;81.80;;;;;;5056702;28;20464;-73
2021/07/02 07:25:05;;;;;;;17.67;13.50;;;16.20;78.70;;;;;;5048214;28;20446;-73
2021/07/02 07:27:32;;;;;;;18.70;15.10;;;16.00;78.10;;;;;;5048326;28;20523;-73
2021/07/02 07:29:58;;;;;;;16.60;14.73;;;16.00;78.50;;;;;;5039819;28;20566;-73
2021/07/02 07:32:26;;;;;;;18.07;15.17;;;16.00;77.60;;;;;;5028618;28;21066;-73
2021/07/02 07:34:55;;;;;;;15.53;13.90;;;16.00;78.60;;;;;;5031848;28;20454;-73
2021/07/02 07:37:23;;;;;;;16.90;14.37;;;16.10;78.60;;;;;;5025710;28;20452;-73
2021/07/02 07:39:51;;;;;;;15.97;12.57;;;16.30;77.60;;;;;;5041868;28;20551;-73
2021/07/02 07:42:19;;;;;;;16.63;13.70;;;16.30;76.80;;;;;;5044107;28;20480;-73
2021/07/02 07:44:46;;;;;;;16.83;14.57;;;16.30;76.60;;;;;;5053672;28;20464;-73
2021/07/02 07:47:12;;;;;;;15.50;12.87;;;16.40;76.20;;;;;;5043977;28;20567;-73
2021/07/02 07:49:42;;;;;;;15.97;14.23;;;16.40;76.60;;;;;;5042855;28;20482;-72
2021/07/02 07:52:14;;;;;;;19.70;14.37;;;16.20;76.60;;;;;;5048525;28;20485;-72
2021/07/02 07:54:41;;;;;;;18.57;14.30;;;16.30;76.90;;;;;;5043633;28;20452;-73
2021/07/02 07:57:10;;;;;;;15.90;13.87;;;16.40;75.80;;;;;;5036206;28;20478;-73
2021/07/02 07:59:37;;;;;;;15.60;13.30;;;16.50;75.70;;;;;;5039501;28;20532;-73
2021/07/02 08:02:04;;;;;;;14.47;13.00;;;16.60;76.20;;;;;;5038476;28;20533;-73
2021/07/02 08:04:31;;;;;;;16.90;13.33;;;16.50;75.70;;;;;;5051263;28;20465;-73
2021/07/02 08:06:58;;;;;;;21.63;13.20;;;16.50;76.40;;;;;;5034678;28;20465;-73
2021/07/02 08:09:26;;;;;;;14.00;12.50;;;16.50;76.40;;;;;;5032432;28;20580;-72
2021/07/02 08:11:53;;;;;;;14.20;12.67;;;16.50;76.00;;;;;;5045161;28;20508;-72
2021/07/02 08:14:21;;;;;;;19.07;13.30;;;16.60;76.30;;;;;;5040595;28;20461;-73
2021/07/02 08:16:48;;;;;;;16.53;14.00;;;16.50;76.00;;;;;;5036472;28;20999;-72
2021/07/02 08:19:15;;;;;;;16.67;12.63;;;16.70;75.90;;;;;;5040762;28;20476;-71
2021/07/02 08:21:41;;;;;;;13.80;12.37;;;16.60;75.90;;;;;;5044909;28;20540;-71
2021/07/02 08:24:08;;;;;;;14.80;13.40;;;16.60;75.60;;;;;;5040497;28;20489;-73
2021/07/02 08:26:36;;;;;;;17.33;12.57;;;16.70;75.70;;;;;;5046704;28;20541;-72
2021/07/02 08:31:48;;;;;;;15.70;12.93;;;16.60;75.80;;;;;;5038469;28;21041;-72
2021/07/02 08:34:15;;;;;;;14.63;12.57;;;16.60;76.90;;;;;;5029294;28;20850;-72
2021/07/02 08:36:42;;;;;;;14.57;13.07;;;16.60;76.70;;;;;;5036652;28;20453;-72
2021/07/02 08:39:10;;;;;;;14.60;12.90;;;16.80;76.70;;;;;;5028782;28;20453;-73
2021/07/02 08:41:38;;;;;;;14.83;12.57;;;16.90;75.80;;;;;;5031775;28;20507;-73
2021/07/02 08:44:05;;;;;;;17.67;13.47;;;17.00;75.10;;;;;;5034808;28;20489;-73
2021/07/02 08:46:34;;;;;;;13.47;11.03;;;16.90;73.80;;;;;;5045470;28;20988;-73
2021/07/02 08:49:03;;;;;;;14.60;12.33;;;17.20;74.10;;;;;;5041602;28;20462;-73
2021/07/02 08:51:31;;;;;;;15.37;12.37;;;17.40;73.50;;;;;;5042412;28;20481;-74
2021/07/02 08:53:59;;;;;;;15.33;11.57;;;17.40;73.40;;;;;;5040494;28;20467;-74
2021/07/02 08:56:26;;;;;;;15.07;12.10;;;17.40;72.80;;;;;;5051086;28;20498;-73
2021/07/02 08:58:52;;;;;;;18.73;13.23;;;17.30;73.50;;;;;;5046429;28;20457;-72
2021/07/02 09:01:38;;;;;;;14.57;12.50;;;17.20;73.00;;;;;;5049746;28;20532;-75
2021/07/02 09:04:26;;;;;;;16.90;11.93;;;17.20;72.40;;;;;;5041611;28;21106;-73
2021/07/02 09:07:08;;;;;;;13.27;11.87;;;17.20;72.50;;;;;;5045903;28;20538;-73
2021/07/02 09:09:50;;;;;;;13.47;12.10;;;17.10;71.90;;;;;;5037628;28;20551;-72
2021/07/02 09:12:18;;;;;;;14.67;13.17;;;17.10;72.80;;;;;;5053833;28;20470;-72
2021/07/02 09:15:05;;;;;;;15.70;13.23;;;17.40;73.10;;;;;;5054171;28;20466;-73
2021/07/02 09:17:34;;;;;;;15.23;13.63;;;17.40;71.20;;;;;;5047527;28;20465;-74
2021/07/02 09:20:15;;;;;;;15.07;13.27;;;17.40;71.80;;;;;;5041751;28;20462;-74
2021/07/02 09:22:48;;;;;;;16.70;13.60;;;17.60;72.00;;;;;;5045382;28;20460;-73
2021/07/02 09:25:27;;;;;;;13.93;12.20;;;17.80;71.50;;;;;;5049959;28;20501;-74
2021/07/02 09:27:57;;;;;;;15.80;13.07;;;17.80;71.80;;;;;;5046479;28;20986;-74
2021/07/02 09:30:26;;;;;;;14.93;12.37;;;18.20;70.90;;;;;;5040868;28;20488;-74
2021/07/02 09:32:54;;;;;;;14.47;12.97;;;18.50;69.50;;;;;;5041164;28;20555;-74
2021/07/02 09:35:25;;;;;;;12.53;11.07;;;18.70;69.70;;;;;;5047079;28;20454;-74
2021/07/02 09:37:57;;;;;;;15.30;12.10;;;18.90;68.30;;;;;;5047336;28;20756;-74
2021/07/02 09:40:26;;;;;;;13.63;12.33;;;19.10;68.20;;;;;;5036775;28;20449;-74
2021/07/02 09:43:05;;;;;;;15.77;12.27;;;19.10;67.60;;;;;;5055807;28;20447;-75
2021/07/02 09:45:33;;;;;;;12.50;11.07;;;19.00;68.10;;;;;;5051097;28;20534;-74
2021/07/02 09:48:08;;;;;;;15.17;12.43;;;19.40;67.60;;;;;;5044713;28;20465;-74
2021/07/02 09:50:38;;;;;;;12.70;11.50;;;19.50;67.50;;;;;;5050848;28;22229;-73
2021/07/02 09:53:09;;;;;;;13.40;11.20;;;20.10;66.30;;;;;;5032216;28;20567;-73
2021/07/02 09:55:43;;;;;;;15.20;11.60;;;20.40;65.80;;;;;;5031670;28;21314;-74
2021/07/02 09:58:12;;;;;;;13.37;11.80;;;20.30;65.50;;;;;;5048048;28;20482;-74
2021/07/02 10:00:45;;;;;;;13.13;11.67;;;20.70;64.40;;;;;;5055537;28;20513;-74
2021/07/02 10:03:12;;;;;;;12.37;11.07;;;21.10;63.70;;;;;;5048402;28;20453;-74
2021/07/02 10:05:51;;;;;;;13.33;12.00;;;21.10;63.40;;;;;;5054110;28;20451;-74
2021/07/02 10:08:19;;;;;;;14.33;12.97;;;21.50;62.10;;;;;;5044726;28;20449;-74
2021/07/02 10:10:46;;;;;;;15.17;11.90;;;21.30;62.70;;;;;;5063882;28;20965;-74
2021/07/02 10:13:14;;;;;;;13.00;11.60;;;21.10;63.10;;;;;;5051781;28;20811;-74
2021/07/02 10:15:43;;;;;;;15.47;13.00;;;20.90;62.50;;;;;;5044654;28;20463;-74
2021/07/02 10:18:13;;;;;;;12.57;11.20;;;20.80;62.10;;;;;;5027724;28;20456;-74
2021/07/02 10:20:41;;;;;;;12.87;11.37;;;20.90;62.20;;;;;;5029400;28;20451;-75
2021/07/02 10:23:11;;;;;;;16.80;12.53;;;21.00;62.20;;;;;;5027457;28;20527;-73
2021/07/02 10:25:40;;;;;;;13.90;12.50;;;20.90;61.90;;;;;;5035826;28;20805;-74
2021/07/02 10:28:07;;;;;;;11.93;10.73;;;21.00;62.40;;;;;;5045538;28;20482;-74
2021/07/02 10:30:34;;;;;;;12.17;11.00;;;21.20;61.30;;;;;;5054907;28;20552;-74
2021/07/02 10:33:02;;;;;;;15.93;11.87;;;21.80;61.20;;;;;;5045012;28;20484;-75
2021/07/02 10:35:30;;;;;;;13.67;12.37;;;21.40;61.00;;;;;;5040435;28;20488;-75
2021/07/02 10:37:58;;;;;;;12.83;11.57;;;21.50;61.10;;;;;;5051402;28;20465;-74
2021/07/02 10:40:38;;;;;;;12.67;11.37;;;21.50;60.70;;;;;;5047382;28;20858;-74
2021/07/02 10:43:18;;;;;;;13.63;12.20;;;21.50;61.00;;;;;;5047872;28;20455;-74
2021/07/02 10:46:18;;;;;;;12.77;11.53;;;21.00;60.80;;;;;;5036827;28;20454;-75
2021/07/02 10:48:56;;;;;;;14.23;12.20;;;20.60;61.30;;;;;;4933575;28;20568;-74
2021/07/02 10:51:54;;;;;;;12.47;11.37;;;20.40;62.10;;;;;;4948733;28;20644;-73
2021/07/02 10:54:29;;;;;;;14.43;12.93;;;20.10;62.80;;;;;;5005765;28;20854;-75
2021/07/02 10:57:17;;;;;;;14.63;13.17;;;19.50;63.30;;;;;;5032881;28;20854;-74
2021/07/02 11:00:10;;;;;;;13.80;11.73;;;19.30;63.90;;;;;;5036314;28;20448;-75
2021/07/02 11:02:37;;;;;;;17.00;11.23;;;19.10;64.60;;;;;;5027394;28;20598;-74
2021/07/02 11:05:29;;;;;;;17.57;12.70;;;18.90;65.60;;;;;;5047704;28;20465;-74
2021/07/02 11:07:55;;;;;;;16.03;11.83;;;18.80;64.40;;;;;;5055058;28;20452;-74
2021/07/02 11:10:23;;;;;;;13.50;10.90;;;18.90;65.10;;;;;;5036007;28;20448;-74
2021/07/02 11:13:03;;;;;;;11.87;10.77;;;19.40;63.80;;;;;;5046538;28;20967;-76
2021/07/02 11:15:30;;;;;;;12.73;10.60;;;19.90;63.30;;;;;;5045508;28;20977;-75
2021/07/02 11:18:18;;;;;;;12.20;11.00;;;20.40;62.60;;;;;;5054850;28;20557;-74
2021/07/02 11:20:46;;;;;;;11.10;9.63;;;20.80;61.60;;;;;;5048627;28;20455;-75
2021/07/02 11:23:28;;;;;;;10.87;9.73;;;21.30;60.80;;;;;;5050380;28;20441;-76
2021/07/02 11:26:05;;;;;;;11.10;10.10;;;21.50;60.20;;;;;;5050315;28;20957;-75
2021/07/02 11:28:51;;;;;;;12.83;11.23;;;21.80;60.10;;;;;;5042091;28;20487;-75
2021/07/02 11:31:19;;;;;;;10.83;9.40;;;21.60;59.90;;;;;;5042453;28;20453;-75
2021/07/02 11:33:48;;;;;;;12.17;11.07;;;21.10;60.10;;;;;;5045924;28;20468;-74
2021/07/02 11:36:17;;;;;;;11.27;10.10;;;20.70;60.80;;;;;;5041853;28;20489;-74
2021/07/02 11:38:55;;;;;;;10.13;9.23;;;20.00;60.60;;;;;;5050431;28;20478;-75
2021/07/02 11:41:29;;;;;;;11.60;10.50;;;19.70;61.60;;;;;;5047445;28;20975;-74
2021/07/02 11:43:58;;;;;;;11.40;10.10;;;19.50;62.00;;;;;;5053999;28;20453;-75
2021/07/02 11:46:26;;;;;;;11.33;10.13;;;19.10;62.50;;;;;;5046572;28;20441;-74
2021/07/02 11:48:54;;;;;;;11.47;10.30;;;19.00;62.70;;;;;;5047776;28;21129;-75
2021/07/02 11:51:23;;;;;;;12.13;10.00;;;18.70;63.30;;;;;;5048797;28;20503;-75
2021/07/02 11:53:52;;;;;;;11.60;10.57;;;18.60;64.00;;;;;;5048148;28;20478;-73
2021/07/02 11:56:20;;;;;;;12.30;11.10;;;18.50;64.40;;;;;;5055517;28;20471;-73
2021/07/02 11:58:49;;;;;;;12.20;10.70;;;18.40;64.80;;;;;;5048566;28;20454;-74
2021/07/02 12:01:20;;;;;;;11.43;10.23;;;18.30;64.90;;;;;;5036079;28;20460;-74
2021/07/02 12:03:50;;;;;;;14.73;11.20;;;18.30;64.80;;;;;;5031657;28;20480;-73
2021/07/02 12:06:25;;;;;;;12.23;10.80;;;18.20;65.30;;;;;;5040182;28;21051;-75
2021/07/02 12:08:56;;;;;;;12.23;10.87;;;18.10;65.60;;;;;;5041697;28;20460;-73
2021/07/02 12:11:29;;;;;;;11.47;10.27;;;18.10;65.50;;;;;;5025457;28;20854;-74
2021/07/02 12:13:56;;;;;;;12.17;10.97;;;18.10;66.00;;;;;;5046170;28;20472;-74
2021/07/02 12:16:33;;;;;;;13.30;10.70;;;18.30;65.90;;;;;;5046047;28;20488;-74
2021/07/02 12:19:00;;;;;;;12.43;11.13;;;18.40;65.50;;;;;;5042914;28;20460;-73
2021/07/02 12:21:31;;;;;;;11.10;10.07;;;18.30;65.60;;;;;;5046942;28;20544;-74
2021/07/02 12:24:01;;;;;;;11.97;10.80;;;18.30;65.10;;;;;;5039288;28;20457;-74
2021/07/02 12:26:29;;;;;;;10.93;9.93;;;18.40;65.40;;;;;;5029840;28;20598;-75
2021/07/02 12:29:01;;;;;;;13.13;10.63;;;18.40;65.00;;;;;;5043597;28;20450;-75
2021/07/02 12:31:31;;;;;;;12.97;10.10;;;18.30;65.10;;;;;;5048755;28;20450;-74
2021/07/02 12:33:58;;;;;;;17.43;11.40;;;18.10;65.30;;;;;;5045793;28;20683;-73
2021/07/02 12:36:27;;;;;;;13.57;10.90;;;18.10;65.80;;;;;;5038316;28;20529;-74
2021/07/02 12:39:11;;;;;;;11.50;10.10;;;18.10;65.90;;;;;;5041710;28;20475;-74
2021/07/02 12:41:41;;;;;;;12.83;10.00;;;18.40;65.60;;;;;;5052207;28;20530;-74